Time;durP1;ratioP1;P1;durP2;ratioP2;P2;SDS_P1;SDS_P2;PMS_P1;PMS_P2;Temp;Humidity;BMP_temperature;BMP_pressure;BME280_temperature;BME280_humidity;BME280_pressure;Samples;Min_cycle;Max_cycle;Signal;HPM_P1;HPM_P2
2022/01/20 00:01:50;;;;;;;19.33;10.90;;;;;;;-2.67;69.57;97837.66;5050683;28;20678;-80
2022/01/20 00:04:39;;;;;;;23.50;12.83;;;;;;;-2.80;70.12;97823.06;5050593;28;20190;-82
2022/01/20 00:07:28;;;;;;;21.03;11.60;;;;;;;-2.76;70.19;97822.31;5047969;28;20186;-81
2022/01/20 00:26:27;;;;;;;29.87;15.27;;;;;;;-2.80;69.77;97778.31;5068962;28;20201;-80
2022/01/20 00:28:58;;;;;;;25.23;13.30;;;;;;;-2.56;69.21;97790.56;5067323;28;20310;-81
2022/01/20 00:39:26;;;;;;;23.13;12.37;;;;;;;-2.51;69.29;97799.94;5068268;28;20283;-81
2022/01/20 00:41:54;;;;;;;19.67;12.13;;;;;;;-2.46;68.80;97797.50;5067301;28;20221;-85
2022/01/20 00:44:24;;;;;;;26.47;12.37;;;;;;;-2.31;68.96;97807.91;5069118;28;20697;-92
2022/01/20 00:46:52;;;;;;;20.60;12.17;;;;;;;-2.21;68.68;97794.53;5070601;28;20192;-88
2022/01/20 00:49:20;;;;;;;17.53;10.73;;;;;;;-2.10;68.36;97795.53;5070373;28;20220;-92
2022/01/20 00:51:47;;;;;;;20.60;11.23;;;;;;;-2.10;68.63;97797.25;5073299;28;20196;-83
2022/01/20 00:54:19;;;;;;;24.07;12.83;;;;;;;-2.14;67.32;97776.03;5070689;28;20226;-86
2022/01/20 00:56:46;;;;;;;23.17;12.07;;;;;;;-2.13;68.00;97795.50;5071026;28;20271;-94
2022/01/20 00:59:14;;;;;;;22.53;13.07;;;;;;;-2.37;67.67;97767.19;5071708;28;20201;-95
2022/01/20 01:01:41;;;;;;;27.83;13.63;;;;;;;-2.08;67.99;97771.03;5070079;28;20381;-88
2022/01/20 01:04:09;;;;;;;27.67;14.50;;;;;;;-1.87;67.20;97785.72;5070291;28;20561;-94
2022/01/20 01:09:06;;;;;;;26.40;14.07;;;;;;;-2.27;68.53;97779.22;5087596;28;20232;-92
2022/01/20 01:11:36;;;;;;;29.17;16.00;;;;;;;-2.79;70.16;97766.50;5069352;28;20278;-80
2022/01/20 01:14:06;;;;;;;44.83;20.47;;;;;;;-3.11;71.50;97757.47;5052066;28;20229;-84
2022/01/20 01:20:06;;;;;;;37.30;18.00;;;;;;;-3.19;71.51;97762.38;5069714;28;20730;-92
2022/01/20 01:24:52;;;;;;;36.53;16.70;;;;;;;-2.77;70.22;97747.97;5074251;28;20579;-82
2022/01/20 01:27:26;;;;;;;33.23;16.60;;;;;;;-2.54;70.19;97746.69;5072242;28;20195;-82
2022/01/20 01:30:38;;;;;;;29.17;14.67;;;;;;;-2.52;69.86;97744.16;5039323;28;20228;-82
2022/01/20 01:32:51;;;;;;;25.30;14.53;;;;;;;-2.58;68.85;97709.44;5074005;28;20208;-83
2022/01/20 01:35:23;;;;;;;30.97;15.73;;;;;;;-2.51;69.14;97740.78;5067933;28;20271;-82
2022/01/20 01:40:28;;;;;;;38.90;18.47;;;;;;;-2.21;68.00;97723.53;5070188;28;20455;-82
2022/01/20 01:42:57;;;;;;;42.17;17.93;;;;;;;-2.06;67.55;97733.03;5071558;28;20186;-81
2022/01/20 01:45:28;;;;;;;33.83;17.70;;;;;;;-2.04;67.49;97711.09;5054599;28;20220;-83
2022/01/20 01:47:57;;;;;;;30.67;17.83;;;;;;;-2.01;66.71;97727.19;5055320;28;20727;-80
2022/01/20 01:50:26;;;;;;;28.83;15.10;;;;;;;-2.00;66.75;97733.94;5071738;28;20628;-81
2022/01/20 01:52:55;;;;;;;27.63;15.30;;;;;;;-2.04;67.07;97736.44;5067658;28;20234;-80
2022/01/20 01:55:24;;;;;;;28.33;15.77;;;;;;;-2.24;66.71;97735.28;5046756;28;20193;-81
2022/01/20 01:57:52;;;;;;;24.97;14.30;;;;;;;-2.45;68.50;97735.81;5048678;28;20258;-82
2022/01/20 02:00:21;;;;;;;25.90;13.83;;;;;;;-2.62;68.24;97725.41;5031193;28;20184;-84
2022/01/20 02:02:58;;;;;;;23.03;14.03;;;;;;;-3.24;69.25;97627.25;5049601;28;20192;-82
2022/01/20 02:19:58;;;;;;;29.00;14.77;;;;;;;-3.28;71.63;97690.47;5045938;28;20207;-80
2022/01/20 02:22:37;;;;;;;23.63;13.23;;;;;;;-3.09;70.14;97700.94;5045348;28;20280;-83
2022/01/20 02:25:33;;;;;;;27.03;14.40;;;;;;;-3.34;70.97;97698.81;5045459;28;20292;-80
2022/01/20 02:28:06;;;;;;;30.83;13.97;;;;;;;-3.67;71.27;97678.75;5047836;28;20221;-80
2022/01/20 02:30:35;;;;;;;26.77;13.93;;;;;;;-3.74;71.54;97661.75;5045529;28;20231;-80
2022/01/20 02:33:04;;;;;;;25.93;14.73;;;;;;;-3.53;71.72;97682.44;5052305;28;20256;-94
2022/01/20 02:35:38;;;;;;;35.37;16.97;;;;;;;-3.33;71.18;97691.25;5048438;28;20584;-84
2022/01/20 02:38:18;;;;;;;25.93;13.83;;;;;;;-3.21;70.50;97682.16;5046251;28;20189;-84
2022/01/20 02:46:07;;;;;;;33.23;15.57;;;;;;;-3.25;70.82;97670.25;5046162;28;20201;-87
2022/01/20 02:48:37;;;;;;;30.13;16.27;;;;;;;-3.52;71.58;97671.47;5046729;28;20233;-88
2022/01/20 02:51:04;;;;;;;28.27;15.97;;;;;;;-3.70;72.34;97668.59;5047265;28;20680;-82
2022/01/20 02:53:31;;;;;;;32.67;16.87;;;;;;;-4.00;72.85;97632.59;5046081;28;20195;-83
2022/01/20 02:55:58;;;;;;;32.93;18.20;;;;;;;-3.60;73.01;97667.94;5047426;28;20605;-92
2022/01/20 02:58:25;;;;;;;31.17;16.00;;;;;;;-3.40;72.33;97661.56;5048523;28;20579;-85
2022/01/20 03:00:53;;;;;;;27.77;14.60;;;;;;;-3.21;71.69;97655.13;5047756;28;20215;-88
2022/01/20 03:03:20;;;;;;;37.20;17.80;;;;;;;-3.18;70.68;97650.16;5046892;28;20721;-89
2022/01/20 03:05:47;;;;;;;28.73;16.17;;;;;;;-3.08;69.59;97658.75;5049714;28;20629;-96
2022/01/20 03:08:14;;;;;;;39.30;17.67;;;;;;;-3.01;70.33;97653.78;5048625;28;20659;-88
2022/01/20 03:10:42;;;;;;;30.80;17.50;;;;;;;-2.92;69.63;97658.16;5048339;28;20612;-91
2022/01/20 03:13:09;;;;;;;24.70;14.73;;;;;;;-3.17;70.52;97641.72;5048473;28;20541;-90
2022/01/20 03:15:36;;;;;;;25.30;13.63;;;;;;;-3.11;70.12;97656.19;5049199;28;20242;-88
2022/01/20 03:18:04;;;;;;;24.00;14.10;;;;;;;-3.14;69.87;97649.38;5052377;28;20198;-91
2022/01/20 03:20:32;;;;;;;25.10;13.07;;;;;;;-3.39;71.40;97632.03;5058398;28;20182;-84
2022/01/20 03:23:00;;;;;;;26.77;14.10;;;;;;;-3.30;71.89;97649.94;5038431;28;20223;-80
2022/01/20 03:25:28;;;;;;;24.30;13.50;;;;;;;-3.11;70.54;97636.75;5070204;28;20202;-87
2022/01/20 03:27:57;;;;;;;21.30;12.70;;;;;;;-3.15;70.64;97636.69;5068193;28;20223;-89
2022/01/20 03:30:26;;;;;;;21.23;12.70;;;;;;;-3.35;71.35;97611.00;5056780;28;20276;-82
2022/01/20 03:32:54;;;;;;;21.83;12.73;;;;;;;-3.10;71.91;97632.53;5020542;28;20226;-88
2022/01/20 03:35:21;;;;;;;22.53;13.20;;;;;;;-2.94;70.19;97625.22;5053082;28;20578;-93
2022/01/20 03:38:09;;;;;;;21.77;13.13;;;;;;;-2.68;70.09;97623.09;5052607;28;20649;-86
2022/01/20 03:40:36;;;;;;;24.43;13.80;;;;;;;-2.80;69.85;97625.41;5052348;28;20200;-95
2022/01/20 03:43:03;;;;;;;22.30;13.27;;;;;;;-3.09;70.16;97604.69;5051223;28;20235;-89
2022/01/20 03:45:30;;;;;;;20.83;12.67;;;;;;;-2.98;70.44;97623.47;5052493;28;20758;-90
2022/01/20 03:48:07;;;;;;;22.33;12.67;;;;;;;-2.91;70.06;97625.28;5052170;28;20332;-91
2022/01/20 03:51:08;;;;;;;22.37;12.60;;;;;;;-2.83;69.90;97627.91;5052300;28;20526;-96
2022/01/20 03:53:36;;;;;;;22.20;12.50;;;;;;;-3.11;70.08;97582.72;5051660;28;20207;-94
2022/01/20 03:56:05;;;;;;;27.03;13.67;;;;;;;-2.92;68.82;97607.50;5052443;28;21131;-95
2022/01/20 03:58:46;;;;;;;24.80;13.13;;;;;;;-2.98;69.21;97609.94;5052344;28;20644;-91
2022/01/20 04:01:17;;;;;;;26.13;13.80;;;;;;;-2.95;69.51;97623.53;5051861;28;20186;-94
2022/01/20 04:04:04;;;;;;;20.77;12.53;;;;;;;-3.25;69.89;97619.59;5052071;28;20207;-95
2022/01/20 04:06:41;;;;;;;21.60;12.90;;;;;;;-3.11;69.66;97633.38;5052999;28;20675;-93
2022/01/20 04:09:08;;;;;;;24.70;11.33;;;;;;;-3.11;70.71;97633.38;5037203;28;20221;-89
2022/01/20 04:11:35;;;;;;;23.60;11.47;;;;;;;-3.15;70.19;97629.09;5039704;28;20816;-92
2022/01/20 04:14:03;;;;;;;24.27;12.83;;;;;;;-3.40;70.70;97621.06;5060205;28;20278;-91
2022/01/20 04:19:37;;;;;;;19.40;10.70;;;;;;;-3.64;71.95;97622.28;5067763;28;20206;-82
2022/01/20 04:22:05;;;;;;;21.47;12.03;;;;;;;-3.53;71.83;97621.69;5057991;28;20272;-80
2022/01/20 04:24:32;;;;;;;21.90;12.37;;;;;;;-3.45;71.50;97620.16;5079048;28;20799;-89
2022/01/20 04:27:00;;;;;;;24.40;12.43;;;;;;;-3.56;71.28;97603.91;5075414;28;20209;-85
2022/01/20 04:29:29;;;;;;;23.00;12.50;;;;;;;-3.41;71.99;97626.09;5069836;28;20222;-84
2022/01/20 04:31:56;;;;;;;23.30;13.00;;;;;;;-3.53;71.12;97611.56;5068001;28;20213;-82
2022/01/20 04:34:24;;;;;;;23.57;13.27;;;;;;;-3.59;72.23;97630.84;5070275;28;20207;-85
2022/01/20 04:36:53;;;;;;;26.70;14.47;;;;;;;-3.72;71.99;97609.50;5068043;28;20272;-85
2022/01/20 04:39:25;;;;;;;26.50;15.27;;;;;;;-3.71;72.55;97615.44;5076001;28;20178;-82
2022/01/20 04:41:54;;;;;;;32.53;17.33;;;;;;;-3.92;72.97;97600.72;5071246;28;20197;-86
2022/01/20 04:58:19;;;;;;;22.00;11.63;;;;;;;-3.39;71.11;97609.25;5052682;28;20193;-82
2022/01/20 05:00:47;;;;;;;26.07;12.30;;;;;;;-3.52;71.76;97615.78;5069214;28;20243;-84
2022/01/20 05:03:38;;;;;;;24.57;11.67;;;;;;;-3.76;71.73;97607.75;5061871;28;20202;-85
2022/01/20 05:06:20;;;;;;;26.23;13.63;;;;;;;-3.71;72.22;97597.72;5056106;28;20197;-86
2022/01/20 05:08:49;;;;;;;31.13;15.27;;;;;;;-3.81;71.76;97589.09;5069046;28;20193;-85
2022/01/20 05:11:24;;;;;;;28.00;14.70;;;;;;;-3.71;71.73;97593.50;5068345;28;20219;-81
2022/01/20 05:13:51;;;;;;;29.77;14.00;;;;;;;-3.89;72.00;97604.94;5068004;28;20632;-86
2022/01/20 05:16:23;;;;;;;30.77;13.87;;;;;;;-3.91;72.28;97597.34;5070857;28;20273;-84
2022/01/20 05:18:52;;;;;;;27.67;12.57;;;;;;;-4.22;73.13;97564.69;5067168;28;20780;-83
2022/01/20 05:21:39;;;;;;;24.43;13.60;;;;;;;-4.16;73.16;97588.41;5047476;28;20231;-89
2022/01/20 05:24:16;;;;;;;27.23;13.97;;;;;;;-4.12;73.12;97595.25;5064168;28;20196;-88
2022/01/20 05:26:43;;;;;;;21.40;12.47;;;;;;;-4.22;73.09;97584.91;5052403;28;20197;-85
2022/01/20 05:29:17;;;;;;;33.80;13.10;;;;;;;-4.38;73.42;97563.53;5070618;28;20197;-91
2022/01/20 05:31:44;;;;;;;25.27;14.03;;;;;;;-4.12;73.66;97609.56;5064532;28;20359;-87
2022/01/20 05:34:11;;;;;;;19.30;11.80;;;;;;;-4.61;72.74;97516.75;5068502;28;20218;-89
2022/01/20 05:36:38;;;;;;;23.13;12.57;;;;;;;-4.24;73.59;97594.16;5068472;28;20581;-85
2022/01/20 05:39:06;;;;;;;25.70;13.23;;;;;;;-4.18;73.41;97601.84;5051533;28;20269;-89
2022/01/20 05:41:35;;;;;;;29.37;13.10;;;;;;;-4.42;73.57;97558.41;5068780;28;20193;-85
2022/01/20 05:44:13;;;;;;;25.43;14.10;;;;;;;-4.53;74.10;97570.81;5068982;28;20217;-90
2022/01/20 05:46:47;;;;;;;23.90;13.27;;;;;;;-4.63;75.16;97575.63;5051377;28;20204;-89
2022/01/20 05:49:57;;;;;;;24.20;12.17;;;;;;;-4.61;75.63;97596.72;5049515;28;20241;-86
2022/01/20 05:52:24;;;;;;;20.80;11.57;;;;;;;-5.12;76.10;97538.34;5067018;28;20196;-88
2022/01/20 05:54:54;;;;;;;27.40;12.57;;;;;;;-4.84;77.10;97602.97;5067810;28;20192;-88
2022/01/20 05:57:22;;;;;;;23.40;12.47;;;;;;;-4.80;77.41;97579.47;5067926;28;20201;-87
2022/01/20 05:59:53;;;;;;;23.87;12.93;;;;;;;-4.77;76.33;97556.81;5067100;28;20589;-94
2022/01/20 06:03:35;;;;;;;24.87;11.73;;;;;;;-4.55;75.68;97596.84;5069006;28;20209;-92
2022/01/20 06:05:22;;;;;;;29.33;12.33;;;;;;;-5.02;76.79;97561.31;5069577;28;20254;-91
2022/01/20 06:07:49;;;;;;;24.23;11.73;;;;;;;-5.09;77.12;97546.84;5070414;28;20614;-93
2022/01/20 06:10:17;;;;;;;23.23;11.33;;;;;;;-4.97;77.08;97562.25;5070986;28;20247;-92
2022/01/20 06:12:46;;;;;;;28.40;12.83;;;;;;;-4.79;77.28;97589.59;5071388;28;20207;-89
2022/01/20 06:15:14;;;;;;;24.60;13.10;;;;;;;-4.89;76.91;97577.59;5073055;28;20204;-86
2022/01/20 06:18:02;;;;;;;25.03;13.37;;;;;;;-4.98;76.50;97544.56;5069660;28;20199;-87
2022/01/20 06:20:32;;;;;;;23.17;12.90;;;;;;;-4.90;76.37;97560.72;5051322;28;20222;-87
2022/01/20 06:22:59;;;;;;;27.03;15.03;;;;;;;-4.83;76.45;97546.56;5068706;28;20220;-87
2022/01/20 06:25:33;;;;;;;27.53;13.10;;;;;;;-4.53;76.01;97582.56;5074132;28;20201;-87
2022/01/20 06:28:00;;;;;;;19.87;10.83;;;;;;;-4.66;75.64;97550.31;5079479;28;20190;-89
2022/01/20 06:30:28;;;;;;;21.73;11.10;;;;;;;-4.45;74.91;97570.97;5079790;28;20220;-89
2022/01/20 06:32:55;;;;;;;23.03;10.40;;;;;;;-4.79;74.93;97523.09;5073729;28;20534;-86
2022/01/20 06:35:28;;;;;;;22.87;12.57;;;;;;;-4.19;73.97;97583.31;5072448;28;20248;-88
2022/01/20 06:37:55;;;;;;;21.93;10.93;;;;;;;-4.04;73.68;97594.56;5053351;28;20197;-93
2022/01/20 06:40:23;;;;;;;18.30;10.13;;;;;;;-4.34;73.85;97529.06;5072638;28;20634;-86
2022/01/20 06:42:57;;;;;;;24.37;11.97;;;;;;;-3.78;73.30;97568.94;5037127;28;20206;-88
2022/01/20 06:45:26;;;;;;;24.67;12.57;;;;;;;-3.53;72.67;97565.16;5052935;28;20280;-89
2022/01/20 06:48:04;;;;;;;29.57;14.20;;;;;;;-3.42;71.75;97584.75;5069264;28;20185;-94
2022/01/20 06:50:34;;;;;;;27.63;14.33;;;;;;;-3.45;71.78;97573.72;5069295;28;20308;-89
2022/01/20 06:53:03;;;;;;;25.10;14.13;;;;;;;-3.49;71.40;97561.84;5055345;28;20226;-93
2022/01/20 06:55:30;;;;;;;27.50;15.70;;;;;;;-3.39;71.40;97578.88;5074679;28;20193;-83
2022/01/20 06:57:57;;;;;;;35.60;16.73;;;;;;;-3.59;72.18;97548.19;5070109;28;20202;-85
2022/01/20 07:00:25;;;;;;;32.57;15.90;;;;;;;-3.35;72.28;97565.44;5052469;28;20200;-82
2022/01/20 07:02:53;;;;;;;37.67;17.87;;;;;;;-3.13;71.36;97570.03;5068458;28;20193;-83
2022/01/20 07:05:22;;;;;;;25.47;15.90;;;;;;;-2.88;71.09;97574.63;5068536;28;20185;-84
2022/01/20 07:07:50;;;;;;;27.87;14.77;;;;;;;-2.68;70.35;97582.53;5052840;28;20178;-85
2022/01/20 07:10:22;;;;;;;27.67;16.00;;;;;;;-2.59;69.29;97564.91;5052465;28;20233;-83
2022/01/20 07:12:55;;;;;;;23.57;13.10;;;;;;;-2.36;69.09;97585.50;5068640;28;20189;-84
2022/01/20 07:15:22;;;;;;;24.47;14.77;;;;;;;-2.38;68.45;97542.38;5052563;28;20201;-83
2022/01/20 07:17:51;;;;;;;28.33;13.53;;;;;;;-2.23;68.29;97534.97;5068230;28;20184;-83
2022/01/20 07:20:25;;;;;;;20.03;11.87;;;;;;;-1.97;67.68;97583.44;5068866;28;20257;-83
2022/01/20 07:23:12;;;;;;;30.40;13.67;;;;;;;-2.19;68.35;97543.44;5068481;28;20622;-84
2022/01/20 07:25:59;;;;;;;26.20;12.97;;;;;;;-2.10;68.36;97544.41;5052405;28;20206;-82
2022/01/20 07:28:33;;;;;;;24.57;13.77;;;;;;;-2.16;68.85;97541.78;5069633;28;20199;-80
2022/01/20 07:31:03;;;;;;;24.73;12.93;;;;;;;-2.18;68.35;97504.56;5070680;28;20228;-83
2022/01/20 07:33:32;;;;;;;23.77;12.13;;;;;;;-1.83;67.88;97544.69;5069678;28;20189;-82
2022/01/20 07:35:59;;;;;;;15.90;9.57;;;;;;;-1.60;67.03;97544.06;5051935;28;20189;-80
2022/01/20 07:38:27;;;;;;;23.67;11.70;;;;;;;-1.60;66.72;97516.16;5068079;28;20181;-81
2022/01/20 07:40:54;;;;;;;24.50;12.87;;;;;;;-1.40;66.51;97535.78;5068539;28;20214;-83
2022/01/20 07:43:21;;;;;;;22.50;13.27;;;;;;;-1.35;66.49;97518.06;5068964;28;20223;-83
2022/01/20 07:46:08;;;;;;;24.77;12.93;;;;;;;-1.30;65.81;97508.81;5051286;28;20679;-83
2022/01/20 07:48:46;;;;;;;31.33;16.37;;;;;;;-1.05;65.45;97518.31;5068892;28;20203;-82
2022/01/20 07:51:17;;;;;;;32.03;15.57;;;;;;;-0.74;65.40;97545.59;5068522;28;20213;-82
2022/01/20 07:53:45;;;;;;;29.83;16.37;;;;;;;-0.74;65.43;97535.44;5051511;28;20185;-81
2022/01/20 07:56:13;;;;;;;26.77;16.23;;;;;;;-0.87;65.17;97483.66;5051344;28;20189;-80
2022/01/20 07:58:43;;;;;;;36.90;16.83;;;;;;;-0.38;64.04;97539.88;5071307;28;20192;-82
2022/01/20 08:01:10;;;;;;;30.87;17.37;;;;;;;-0.47;63.70;97511.84;5051832;28;20695;-84
2022/01/20 08:03:48;;;;;;;29.67;16.80;;;;;;;-0.40;64.02;97523.75;5069064;28;20196;-82
2022/01/20 08:06:20;;;;;;;32.37;16.57;;;;;;;-0.30;64.13;97528.03;5070571;28;21001;-82
2022/01/20 08:08:53;;;;;;;33.57;18.00;;;;;;;-0.42;61.98;97472.88;5054818;28;20552;-82
2022/01/20 08:11:30;;;;;;;39.43;18.93;;;;;;;0.04;62.45;97516.28;5080227;28;20227;-82
2022/01/20 08:14:10;;;;;;;35.10;18.57;;;;;;;0.03;61.12;97520.53;5061024;28;20245;-83
2022/01/20 08:16:37;;;;;;;41.47;19.47;;;;;;;0.14;61.36;97535.84;5082501;28;20204;-80
2022/01/20 08:19:05;;;;;;;37.47;21.23;;;;;;;0.23;61.44;97525.69;5074703;28;21320;-83
2022/01/20 08:21:33;;;;;;;38.43;20.27;;;;;;;0.43;60.22;97544.41;5071960;28;20211;-84
2022/01/20 08:24:01;;;;;;;28.80;16.40;;;;;;;0.50;59.42;97533.34;5074885;28;20261;-84
2022/01/20 08:26:41;;;;;;;36.57;17.83;;;;;;;0.57;59.60;97522.31;5077966;28;20264;-83
2022/01/20 08:29:09;;;;;;;34.50;16.37;;;;;;;0.68;59.82;97516.38;5076026;28;20206;-83
2022/01/20 08:31:40;;;;;;;26.20;15.33;;;;;;;0.75;58.55;97496.84;5080529;28;20224;-85
2022/01/20 08:34:31;;;;;;;29.97;17.13;;;;;;;0.91;57.51;97518.94;5076617;28;20221;-86
2022/01/20 08:37:45;;;;;;;31.57;17.10;;;;;;;1.25;58.33;97530.81;5069948;28;20201;-91
2022/01/20 08:40:16;;;;;;;25.37;14.63;;;;;;;1.17;56.34;97521.47;5056210;28;20201;-82
2022/01/20 08:42:47;;;;;;;25.13;15.00;;;;;;;0.97;57.38;97478.13;5052631;28;20280;-89
2022/01/20 08:45:17;;;;;;;25.83;15.30;;;;;;;1.49;54.89;97535.00;5068858;28;20181;-88
2022/01/20 08:47:47;;;;;;;25.90;15.53;;;;;;;1.33;55.44;97518.03;5052986;28;20740;-84
2022/01/20 08:50:14;;;;;;;26.90;14.27;;;;;;;1.30;55.41;97523.97;5070097;28;20250;-89
2022/01/20 08:53:01;;;;;;;28.40;13.47;;;;;;;1.46;54.49;97538.38;5069743;28;20250;-86
2022/01/20 08:55:29;;;;;;;24.37;14.00;;;;;;;1.32;54.87;97506.97;5037057;28;20634;-85
2022/01/20 08:58:06;;;;;;;23.17;13.07;;;;;;;1.60;54.62;97523.06;5071939;28;20182;-88
2022/01/20 09:00:39;;;;;;;24.30;14.17;;;;;;;1.78;54.40;97520.44;5037411;28;20245;-85
2022/01/20 09:03:09;;;;;;;24.10;12.77;;;;;;;1.81;53.51;97496.59;5070290;28;20715;-91
2022/01/20 09:05:39;;;;;;;21.50;11.93;;;;;;;1.97;51.90;97508.44;5069260;28;20207;-87
2022/01/20 09:08:29;;;;;;;23.67;12.33;;;;;;;1.77;52.60;97500.88;5070799;28;20197;-82
2022/01/20 09:11:07;;;;;;;22.23;12.67;;;;;;;1.89;52.46;97484.66;5053558;28;20297;-90
2022/01/20 09:16:21;;;;;;;31.63;16.93;;;;;;;2.13;51.59;97494.72;5067897;28;20185;-82
2022/01/20 09:19:21;;;;;;;17.57;10.63;;;;;;;2.43;50.68;97499.69;5049478;28;20192;-81
2022/01/20 09:22:05;;;;;;;15.47;9.83;;;;;;;2.27;49.30;97490.38;5066792;28;20224;-83
2022/01/20 09:25:12;;;;;;;18.67;11.07;;;;;;;2.38;50.01;97501.41;5068821;28;20217;-83
2022/01/20 09:28:33;;;;;;;24.43;12.90;;;;;;;2.64;50.70;97508.91;5070122;28;20203;-87
2022/01/20 09:32:02;;;;;;;18.80;12.17;;;;;;;2.80;50.12;97508.78;5050754;28;20220;-87
2022/01/20 09:35:24;;;;;;;22.20;12.17;;;;;;;2.91;49.90;97499.28;5071161;28;20193;-84
2022/01/20 09:38:46;;;;;;;17.77;11.67;;;;;;;3.03;49.09;97486.38;5065676;28;20242;-81
2022/01/20 09:42:28;;;;;;;20.43;12.30;;;;;;;3.19;49.17;97490.47;5065069;28;20726;-82
2022/01/20 09:45:49;;;;;;;21.10;12.10;;;;;;;3.49;48.92;97478.25;5064348;28;20695;-82
2022/01/20 09:49:14;;;;;;;17.37;12.00;;;;;;;3.47;47.80;97454.38;5065030;28;20691;-82
2022/01/20 09:52:36;;;;;;;30.30;14.67;;;;;;;3.59;48.71;97436.31;5066669;28;20320;-82
2022/01/20 09:56:14;;;;;;;22.23;13.53;;;;;;;3.76;48.11;97452.31;5049012;28;20280;-82
2022/01/20 09:59:34;;;;;;;23.30;12.40;;;;;;;3.95;46.77;97451.22;5065580;28;20187;-85
2022/01/20 10:02:55;;;;;;;23.97;14.17;;;;;;;3.88;46.87;97445.31;5048428;28;20206;-88
2022/01/20 10:06:16;;;;;;;16.90;11.17;;;;;;;3.97;47.07;97437.53;5066343;28;20190;-85
2022/01/20 10:09:57;;;;;;;19.87;11.73;;;;;;;3.73;47.38;97437.81;5065779;28;20605;-83
2022/01/20 10:13:36;;;;;;;15.97;10.60;;;;;;;3.91;46.93;97423.94;5068052;28;20191;-83
2022/01/20 10:17:16;;;;;;;39.07;16.63;;;;;;;4.02;45.83;97427.19;5066697;28;20268;-82
2022/01/20 10:20:37;;;;;;;20.53;12.67;;;;;;;4.03;45.07;97421.22;5065157;28;20230;-84
2022/01/20 10:24:27;;;;;;;21.63;13.00;;;;;;;4.21;44.83;97410.69;5066653;28;20225;-82
2022/01/20 10:27:54;;;;;;;30.47;15.03;;;;;;;3.85;45.29;97367.69;5067101;28;20187;-81
2022/01/20 10:31:16;;;;;;;27.47;13.30;;;;;;;3.68;45.89;97388.41;5070528;28;20233;-83
2022/01/20 10:34:19;;;;;;;25.17;12.17;;;;;;;4.14;45.40;97391.16;5052076;28;20609;-83
2022/01/20 10:37:47;;;;;;;16.20;10.43;;;;;;;4.33;43.85;97374.59;5070488;28;20304;-84
2022/01/20 10:41:25;;;;;;;20.23;10.77;;;;;;;4.36;42.91;97358.34;5069412;28;20534;-81
2022/01/20 10:45:09;;;;;;;10.33;7.07;;;;;;;4.36;41.18;97341.25;5070431;28;20206;-84
2022/01/20 10:48:30;;;;;;;25.10;12.67;;;;;;;4.71;40.76;97364.56;5068243;28;20213;-81
2022/01/20 10:51:54;;;;;;;12.67;7.10;;;;;;;4.90;40.82;97365.91;5067573;28;20294;-82
2022/01/20 10:55:21;;;;;;;9.90;6.47;;;;;;;5.10;39.90;97354.44;5051442;28;20189;-84
2022/01/20 10:58:39;;;;;;;9.83;5.60;;;;;;;5.23;40.03;97338.78;5052073;28;20194;-82
2022/01/20 11:02:00;;;;;;;8.33;6.13;;;;;;;5.17;39.29;97340.63;5067100;28;20194;-81
2022/01/20 11:05:21;;;;;;;11.80;5.70;;;;;;;5.22;39.40;97343.91;5052956;28;20669;-81
2022/01/20 11:08:54;;;;;;;12.07;5.70;;;;;;;5.28;40.06;97334.38;5067992;28;20183;-82
2022/01/20 11:12:37;;;;;;;10.07;5.97;;;;;;;5.50;39.19;97339.94;5068086;28;20614;-85
2022/01/20 11:16:21;;;;;;;11.43;5.53;;;;;;;5.33;39.28;97327.44;5052932;28;20226;-83
2022/01/20 11:19:42;;;;;;;17.20;7.10;;;;;;;5.41;38.80;97340.97;5070145;28;20227;-84
2022/01/20 11:22:58;;;;;;;21.80;9.50;;;;;;;5.69;39.78;97329.22;5051844;28;20330;-86
2022/01/20 11:26:47;;;;;;;9.30;6.23;;;;;;;5.81;39.27;97327.25;5069382;28;20199;-81
2022/01/20 11:30:39;;;;;;;11.77;5.33;;;;;;;5.90;39.17;97327.06;5055100;28;20278;-82
2022/01/20 11:34:12;;;;;;;12.87;6.77;;;;;;;5.88;39.17;97319.41;5053969;28;20223;-84
2022/01/20 11:37:52;;;;;;;8.47;5.60;;;;;;;6.01;39.17;97307.97;5068349;28;20191;-82
2022/01/20 11:41:16;;;;;;;8.20;5.03;;;;;;;6.00;38.98;97316.53;5069304;28;20199;-81
2022/01/20 11:44:37;;;;;;;12.40;5.63;;;;;;;6.09;38.80;97300.91;5069878;28;20181;-85
2022/01/20 11:47:58;;;;;;;13.37;6.80;;;;;;;6.14;38.76;97278.50;5068695;28;20221;-92
2022/01/20 11:51:21;;;;;;;11.70;5.80;;;;;;;6.29;39.10;97285.84;5068245;28;20223;-85
2022/01/20 11:54:28;;;;;;;8.90;4.77;;;;;;;6.13;39.10;97281.09;5070332;28;20243;-84
2022/01/20 11:57:50;;;;;;;10.43;4.93;;;;;;;5.92;39.40;97261.06;5071118;28;20197;-87
2022/01/20 12:01:27;;;;;;;8.23;5.43;;;;;;;5.96;40.48;97254.97;5070628;28;20192;-86
2022/01/20 12:05:12;;;;;;;9.60;5.43;;;;;;;6.06;39.95;97264.16;5069226;28;20191;-87
2022/01/20 12:09:11;;;;;;;10.37;5.03;;;;;;;6.07;39.67;97240.97;5065176;28;20222;-86
2022/01/20 12:12:40;;;;;;;11.70;5.30;;;;;;;6.32;39.27;97256.63;5067586;28;20260;-87
2022/01/20 12:16:10;;;;;;;12.07;6.10;;;;;;;6.44;39.33;97256.31;5072445;28;20667;-89
2022/01/20 12:18:51;;;;;;;12.43;6.30;;;;;;;6.44;38.75;97256.31;5068867;28;20193;-89
2022/01/20 14:57:37;;;;;;;21.13;9.30;;;;;;;6.18;42.20;97177.25;6142795;23;20186;-81
2022/01/20 15:00:08;;;;;;;15.60;8.57;;;;;;;6.10;42.66;97176.63;6094718;23;20191;-86
2022/01/20 15:02:36;;;;;;;12.93;8.20;;;;;;;6.02;43.98;97181.13;6152882;23;20662;-85
2022/01/20 15:05:04;;;;;;;20.00;12.93;;;;;;;5.90;44.74;97183.16;6128697;23;20198;-83
2022/01/20 15:07:31;;;;;;;19.60;11.70;;;;;;;5.62;45.00;97160.72;6126127;23;20193;-81
2022/01/20 15:09:58;;;;;;;21.03;12.67;;;;;;;5.65;45.25;97180.31;6125968;23;20179;-82
2022/01/20 15:12:31;;;;;;;19.30;13.67;;;;;;;5.55;46.03;97174.56;6124270;23;20639;-81
2022/01/20 15:15:00;;;;;;;21.90;14.17;;;;;;;5.51;45.85;97174.66;6125279;23;20254;-84
2022/01/20 15:17:33;;;;;;;37.63;18.17;;;;;;;5.52;46.39;97184.91;6150490;23;20209;-80
2022/01/20 15:20:03;;;;;;;29.07;18.30;;;;;;;5.33;46.58;97154.56;6122617;23;20170;-82
2022/01/20 15:22:30;;;;;;;33.43;18.23;;;;;;;5.45;48.84;97180.81;6151588;23;20232;-85
2022/01/20 15:24:58;;;;;;;28.40;16.53;;;;;;;5.27;47.84;97167.53;6122393;23;20265;-80
2022/01/20 15:27:26;;;;;;;24.90;16.07;;;;;;;5.18;47.82;97172.88;6151165;23;20240;-82
2022/01/20 15:29:54;;;;;;;37.87;19.53;;;;;;;5.15;48.29;97173.81;6149315;23;20177;-81
2022/01/20 15:32:41;;;;;;;63.97;30.83;;;;;;;4.96;49.48;97177.66;6105772;23;20187;-81
2022/01/20 15:35:14;;;;;;;148.00;66.93;;;;;;;4.94;49.40;97172.56;6126896;23;20195;-79
2022/01/20 15:37:45;;;;;;;105.60;55.67;;;;;;;4.84;48.70;97162.53;6125048;23;20176;-86
2022/01/20 15:40:18;;;;;;;102.17;49.73;;;;;;;4.95;49.69;97191.34;6126305;23;20172;-87
2022/01/20 15:42:47;;;;;;;55.10;33.77;;;;;;;4.79;50.43;97180.56;6122813;23;20176;-83
2022/01/20 15:45:15;;;;;;;67.60;35.07;;;;;;;4.59;50.07;97158.78;6150048;23;20195;-89
2022/01/20 15:47:43;;;;;;;62.33;35.90;;;;;;;4.63;50.02;97180.91;6100120;23;20174;-81
2022/01/20 15:50:13;;;;;;;61.73;31.60;;;;;;;4.55;50.55;97186.22;6150575;23;20171;-80
2022/01/20 15:52:41;;;;;;;79.00;37.90;;;;;;;4.34;50.74;97196.03;6150524;23;20246;-83
2022/01/20 15:55:12;;;;;;;61.30;33.07;;;;;;;4.15;51.35;97185.25;6149815;23;20624;-84
2022/01/20 15:57:40;;;;;;;64.43;32.07;;;;;;;4.00;51.42;97168.44;6150200;23;20172;-86
2022/01/20 16:00:11;;;;;;;73.70;41.17;;;;;;;3.98;51.40;97156.53;6075353;23;20172;-86
2022/01/20 16:02:40;;;;;;;64.53;35.30;;;;;;;4.17;52.24;97188.66;6124795;23;20254;-81
2022/01/20 16:05:11;;;;;;;78.50;42.53;;;;;;;3.75;51.42;97168.94;6127571;23;20217;-80
2022/01/20 16:07:40;;;;;;;70.57;35.83;;;;;;;3.75;51.68;97191.97;6125182;23;20292;-80
2022/01/20 16:10:49;;;;;;;34.23;20.83;;;;;;;3.67;50.04;97193.81;6120220;23;20182;-87
2022/01/20 16:14:10;;;;;;;41.63;22.67;;;;;;;3.60;50.52;97194.78;6099743;23;20191;-84
2022/01/20 16:17:32;;;;;;;57.83;32.80;;;;;;;3.56;50.72;97190.56;6125702;23;20718;-84
2022/01/20 16:20:55;;;;;;;52.60;26.90;;;;;;;3.59;50.59;97187.94;6122602;23;20585;-82
2022/01/20 16:24:16;;;;;;;43.80;25.17;;;;;;;3.64;50.82;97197.28;6133335;23;20205;-81
2022/01/20 16:27:37;;;;;;;55.63;29.43;;;;;;;3.62;51.68;97204.13;6161660;23;20226;-81